createdAt,value
2022-07-25T00:00:29.844Z,95.70
2022-07-25T00:24:57.037Z,95.70
2022-07-25T00:27:24.513Z,95.70
2022-07-25T00:32:32.305Z,95.70
2022-07-25T00:34:59.149Z,95.70
2022-07-25T00:37:25.961Z,95.70
2022-07-25T00:39:52.869Z,95.70
2022-07-25T00:42:19.660Z,95.70
2022-07-25T00:44:46.518Z,95.70
2022-07-25T00:50:18.690Z,95.70
2022-07-25T00:56:16.078Z,95.70
2022-07-25T00:58:53.986Z,95.70
2022-07-25T01:09:42.311Z,95.70
2022-07-25T01:11:01.469Z,95.70
2022-07-25T01:13:40.611Z,95.70
2022-07-25T01:16:26.817Z,95.70
2022-07-25T01:19:28.219Z,95.70
2022-07-25T01:22:30.255Z,95.70
2022-07-25T01:28:57.846Z,95.70
2022-07-25T01:31:59.338Z,95.70
2022-07-25T01:34:44.521Z,95.70
2022-07-25T01:37:22.010Z,95.70
2022-07-25T01:39:56.328Z,95.70
2022-07-25T01:42:32.298Z,95.70
2022-07-25T01:45:17.707Z,95.70
2022-07-25T01:47:50.679Z,95.70
2022-07-25T01:50:26.209Z,95.70
2022-07-25T01:56:02.812Z,95.70
2022-07-25T01:59:05.747Z,95.70
2022-07-25T02:01:49.584Z,95.70
2022-07-25T02:05:02.289Z,95.70
2022-07-25T02:07:34.846Z,95.70
2022-07-25T02:10:19.699Z,95.70
2022-07-25T02:13:00.947Z,95.70
2022-07-25T02:15:37.627Z,95.70
2022-07-25T02:21:30.625Z,95.70
2022-07-25T02:24:37.972Z,95.70
2022-07-25T02:27:11.923Z,95.70
2022-07-25T02:30:47.547Z,95.70
2022-07-25T02:33:07.064Z,95.70
2022-07-25T02:35:50.913Z,95.70
2022-07-25T02:38:44.197Z,95.70
2022-07-25T02:41:18.230Z,95.70
2022-07-25T02:44:29.019Z,95.70
2022-07-25T02:47:03.402Z,95.70
2022-07-25T02:49:45.561Z,95.70
2022-07-25T02:52:21.645Z,95.70
2022-07-25T02:54:59.584Z,95.70
2022-07-25T02:57:30.719Z,95.70
2022-07-25T03:00:03.577Z,95.70
2022-07-25T03:03:23.431Z,95.70
2022-07-25T03:05:55.867Z,95.70
2022-07-25T03:08:24.168Z,95.70
2022-07-25T03:10:57.493Z,95.70
2022-07-25T03:13:34.561Z,95.70
2022-07-25T03:16:30.762Z,95.70
2022-07-25T03:19:16.731Z,95.70
2022-07-25T03:21:46.732Z,95.70
2022-07-25T03:24:20.319Z,95.70
2022-07-25T03:26:59.574Z,95.70
2022-07-25T03:29:40.224Z,95.70
2022-07-25T03:32:37.544Z,95.70
2022-07-25T03:35:09.941Z,95.70
2022-07-25T03:38:02.095Z,95.70
2022-07-25T03:40:40.042Z,95.70
2022-07-25T03:43:19.230Z,95.70
2022-07-25T03:45:47.018Z,95.70
2022-07-25T03:48:52.479Z,95.70
2022-07-25T03:51:27.062Z,95.70
2022-07-25T03:54:10.039Z,95.70
2022-07-25T03:56:51.078Z,95.70
2022-07-25T03:59:27.785Z,95.70
2022-07-25T04:02:06.810Z,95.70
2022-07-25T04:04:50.227Z,95.70
2022-07-25T04:07:49.098Z,95.70
2022-07-25T04:10:43.176Z,95.70
2022-07-25T04:13:30.807Z,95.70
2022-07-25T04:16:31.700Z,95.70
2022-07-25T04:25:07.590Z,95.70
2022-07-25T04:27:43.559Z,95.70
2022-07-25T04:30:24.649Z,95.70
2022-07-25T04:33:04.534Z,95.70
2022-07-25T04:35:44.101Z,95.70
2022-07-25T04:38:27.767Z,95.70
2022-07-25T04:41:02.343Z,95.70
2022-07-25T04:46:25.838Z,95.70
2022-07-25T04:49:16.504Z,95.70
2022-07-25T04:52:12.823Z,95.70
2022-07-25T04:55:02.657Z,95.70
2022-07-25T04:57:41.864Z,95.60
2022-07-25T05:01:02.836Z,95.00
2022-07-25T05:03:50.039Z,94.70
2022-07-25T05:06:44.721Z,94.20
2022-07-25T05:09:41.983Z,93.70
2022-07-25T05:13:00.332Z,93.50
2022-07-25T05:19:19.612Z,92.70
2022-07-25T05:25:15.044Z,92.00
2022-07-25T05:33:45.974Z,91.30
2022-07-25T06:25:59.398Z,87.50
2022-07-25T06:28:46.516Z,87.10
2022-07-25T06:31:28.195Z,86.80
2022-07-25T06:36:37.774Z,85.90
2022-07-25T06:39:23.318Z,85.60
2022-07-25T06:42:01.827Z,85.00
2022-07-25T06:44:29.014Z,84.20
2022-07-25T06:46:56.040Z,84.10
2022-07-25T06:58:38.744Z,82.90
2022-07-25T07:05:46.283Z,83.00
2022-07-25T07:09:07.345Z,83.20
2022-07-25T07:11:50.795Z,84.00
2022-07-25T08:52:38.732Z,72.80
2022-07-25T08:58:57.185Z,71.80
2022-07-25T09:01:52.559Z,71.70
2022-07-25T09:07:17.299Z,69.10
2022-07-25T09:09:44.680Z,69.70
2022-07-25T09:15:52.722Z,68.70
2022-07-25T09:18:23.855Z,67.20
2022-07-25T09:21:20.048Z,65.60
2022-07-25T10:14:15.023Z,65.40
2022-07-25T10:16:48.868Z,65.10
2022-07-25T10:20:05.946Z,64.50
2022-07-25T10:22:57.279Z,64.00
2022-07-25T10:26:10.103Z,63.80
2022-07-25T10:35:52.033Z,63.90
2022-07-25T11:26:52.789Z,62.80
2022-07-25T11:34:06.893Z,64.80
2022-07-25T11:37:37.635Z,64.00
2022-07-25T11:51:39.363Z,61.50
2022-07-25T11:57:13.255Z,62.20
2022-07-25T12:03:49.113Z,62.50
2022-07-25T12:10:01.599Z,61.80
2022-07-25T12:12:28.537Z,61.10
2022-07-25T12:14:55.338Z,60.30
2022-07-25T12:17:22.202Z,60.00
2022-07-25T12:19:49.050Z,59.10
2022-07-25T12:22:27.601Z,58.90
2022-07-25T12:26:15.928Z,58.50
2022-07-25T12:28:18.388Z,59.90
2022-07-25T12:35:05.505Z,59.20
2022-07-25T13:19:03.787Z,64.20
2022-07-25T13:24:22.537Z,64.80
2022-07-25T13:27:15.024Z,64.80
2022-07-25T13:30:26.681Z,65.60
2022-07-25T13:32:55.201Z,66.10
2022-07-25T13:35:36.510Z,66.10
2022-07-25T13:38:12.078Z,67.10
2022-07-25T13:40:55.584Z,67.40
2022-07-25T13:43:45.764Z,67.20
2022-07-25T13:51:41.422Z,70.10
2022-07-25T13:54:24.300Z,72.20
2022-07-25T14:11:41.328Z,75.70
2022-07-25T14:24:04.160Z,74.70
2022-07-25T14:30:23.287Z,74.80
2022-07-25T19:24:18.107Z,95.40
2022-07-25T19:26:47.958Z,95.10
2022-07-25T19:29:26.716Z,95.30
2022-07-25T19:31:54.228Z,94.90
2022-07-25T19:34:21.161Z,94.20
2022-07-25T19:36:48.873Z,93.90
2022-07-25T19:39:17.443Z,93.90
2022-07-25T19:41:47.271Z,93.90
2022-07-25T19:44:14.426Z,93.80
2022-07-25T19:46:41.404Z,93.70
2022-07-25T19:49:08.651Z,93.70
2022-07-25T19:51:35.785Z,93.70
2022-07-25T19:54:03.717Z,93.80
2022-07-25T19:56:31.480Z,94.10
2022-07-25T19:59:04.786Z,94.20
2022-07-25T20:01:35.705Z,94.50
2022-07-25T20:04:05.970Z,94.70
2022-07-25T20:06:33.422Z,94.90
2022-07-25T20:09:10.127Z,95.00
2022-07-25T20:11:38.461Z,94.70
2022-07-25T20:14:05.542Z,94.90
2022-07-25T20:16:33.896Z,95.00
2022-07-25T21:07:31.000Z,95.70
2022-07-25T21:09:58.571Z,95.70
2022-07-25T21:12:28.534Z,95.70
2022-07-25T21:14:59.137Z,95.70
2022-07-25T21:17:25.992Z,95.70
2022-07-25T21:19:53.638Z,95.70
2022-07-25T21:22:20.575Z,95.70
2022-07-25T21:24:49.418Z,95.70
2022-07-25T21:27:17.616Z,95.70
2022-07-25T21:29:44.992Z,95.70
2022-07-25T21:32:13.761Z,95.70
2022-07-25T21:34:41.307Z,95.70
2022-07-25T21:37:08.555Z,95.70
2022-07-25T21:39:35.654Z,95.70
2022-07-25T21:42:02.897Z,95.70
2022-07-25T21:44:31.234Z,95.70
2022-07-25T21:46:58.091Z,95.70
2022-07-25T21:49:43.859Z,95.70
2022-07-25T21:52:13.991Z,95.70
2022-07-25T21:54:44.312Z,95.70
2022-07-25T21:57:13.587Z,95.70
2022-07-25T21:59:47.489Z,95.70
2022-07-25T22:02:14.722Z,95.70
2022-07-25T22:04:41.558Z,95.70
2022-07-25T22:07:08.434Z,95.70
2022-07-25T22:09:35.427Z,95.70
2022-07-25T22:12:02.398Z,95.70
2022-07-25T22:14:29.214Z,95.70
2022-07-25T22:16:56.094Z,95.70
2022-07-25T22:19:23.313Z,95.70
2022-07-25T22:21:50.566Z,95.70
2022-07-25T22:24:17.621Z,95.70
2022-07-25T22:26:44.599Z,95.70
2022-07-25T22:29:11.950Z,95.70
2022-07-25T22:31:39.317Z,95.70
2022-07-25T22:34:06.573Z,95.70
2022-07-25T22:36:33.418Z,95.70
2022-07-25T22:39:00.338Z,95.70
2022-07-25T22:41:27.816Z,95.70
2022-07-25T22:43:57.926Z,95.70
2022-07-25T22:46:34.450Z,95.70
2022-07-25T22:49:01.580Z,95.70
2022-07-25T22:51:29.054Z,95.70
2022-07-25T22:53:59.861Z,95.70
2022-07-25T22:56:27.212Z,95.70
2022-07-25T22:58:54.700Z,95.70
2022-07-25T23:01:22.189Z,95.70
2022-07-25T23:03:50.183Z,95.70
2022-07-25T23:06:18.550Z,95.70
2022-07-25T23:08:45.702Z,95.70
2022-07-25T23:11:12.562Z,95.70
2022-07-25T23:13:39.500Z,95.70
2022-07-25T23:16:10.447Z,95.70
2022-07-25T23:18:38.142Z,95.70
2022-07-25T23:21:05.313Z,95.70
2022-07-25T23:23:32.511Z,95.70
2022-07-25T23:25:59.366Z,95.70
2022-07-25T23:28:26.218Z,95.70
2022-07-25T23:30:53.045Z,95.70
2022-07-25T23:33:25.307Z,95.70
2022-07-25T23:35:53.631Z,95.70
2022-07-25T23:38:21.400Z,95.70
2022-07-25T23:40:48.829Z,95.70
2022-07-25T23:43:21.886Z,95.70
2022-07-25T23:46:02.889Z,95.70
2022-07-25T23:48:29.856Z,95.70
2022-07-25T23:50:56.862Z,95.70
2022-07-25T23:53:23.958Z,95.70
2022-07-25T23:55:57.105Z,95.70
2022-07-25T23:58:23.976Z,95.70
